Time;durP1;ratioP1;P1;durP2;ratioP2;P2;SDS_P1;SDS_P2;PMS_P1;PMS_P2;Temp;Humidity;BMP_temperature;BMP_pressure;BME280_temperature;BME280_humidity;BME280_pressure;Samples;Min_cycle;Max_cycle;Signal;HPM_P1;HPM_P2
2021/10/27 11:23:14;;;;;;;19.85;8.60;;;;;;;;;;5052824;28;20074;-52
2021/10/27 11:41:29;;;;;;;17.08;8.02;;;;;;;;;;5033141;28;20033;-53
2021/10/27 11:47:07;;;;;;;15.05;7.40;;;;;;;;;;5033942;28;20460;-53
2021/10/27 11:49:39;;;;;;;15.52;7.57;;;;;;;;;;5033581;28;20355;-53
2021/10/27 11:52:06;;;;;;;16.40;7.47;;;;;;;;;;5032949;28;20113;-53
2021/10/27 11:54:32;;;;;;;15.90;7.22;;;;;;;;;;5033673;28;20033;-53
2021/10/27 11:57:00;;;;;;;10.05;6.15;;;;;;;;;;5034166;28;20028;-53
2021/10/27 11:59:37;;;;;;;14.32;7.07;;;;;;;;;;5034029;28;20057;-53
2021/10/27 12:02:04;;;;;;;15.57;7.22;;;;;;;;;;5033757;28;20459;-53
2021/10/27 12:04:33;;;;;;;14.13;7.25;;;;;;;;;;5032938;28;20079;-53
2021/10/27 12:07:07;;;;;;;19.15;7.20;;;;;;;;;;5033996;28;20049;-53
2021/10/27 12:17:59;;;;;;;16.33;7.25;;;;;;;;;;5022199;28;20033;-52
2021/10/27 12:20:48;;;;;;;9.73;4.68;;;;;;;;;;5033714;28;20029;-53
2021/10/27 12:23:22;;;;;;;13.23;6.25;;;;;;;;;;5029673;28;20143;-52
2021/10/27 12:25:51;;;;;;;9.68;5.78;;;;;;;;;;5033639;28;20026;-53
2021/10/27 12:28:32;;;;;;;12.88;6.28;;;;;;;;;;5033735;28;20447;-52
2021/10/27 12:31:12;;;;;;;12.65;6.60;;;;;;;;;;5032972;28;20051;-52
2021/10/27 12:33:42;;;;;;;12.10;5.78;;;;;;;;;;5032364;28;20025;-52
2021/10/27 12:36:36;;;;;;;8.77;5.00;;;;;;;;;;5033194;28;20037;-53
2021/10/27 12:39:06;;;;;;;15.77;8.15;;;;;;;;;;5033428;28;20060;-52
2021/10/27 12:41:32;;;;;;;17.27;8.05;;;;;;;;;;5032763;28;20104;-52
2021/10/27 12:43:58;;;;;;;13.48;6.65;;;;;;;;;;5031160;28;20574;-52
2021/10/27 12:46:24;;;;;;;12.57;7.35;;;;;;;;;;5033129;28;20024;-52
2021/10/27 12:48:50;;;;;;;13.95;7.03;;;;;;;;;;5032840;28;20352;-53
2021/10/27 12:51:16;;;;;;;14.95;7.30;;;;;;;;;;5032962;28;20033;-52
2021/10/27 12:53:47;;;;;;;14.05;7.03;;;;;;;;;;5032502;28;20079;-53
2021/10/27 12:56:14;;;;;;;12.45;6.70;;;;;;;;;;5031949;28;20033;-52
2021/10/27 12:58:43;;;;;;;15.98;7.93;;;;;;;;;;5032784;28;20083;-52
2021/10/27 13:01:18;;;;;;;15.35;6.93;;;;;;;;;;5033088;28;20033;-52
2021/10/27 13:04:12;;;;;;;16.35;8.23;;;;;;;;;;5032284;28;20026;-52
2021/10/27 13:07:03;;;;;;;12.88;6.90;;;;;;;;;;5032320;28;20177;-52
2021/10/27 13:10:01;;;;;;;11.90;6.13;;;;;;;;;;5032946;28;20120;-53
2021/10/27 13:29:34;;;;;;;15.20;6.13;;;;;;;;;;5011475;28;20060;-53
2021/10/27 13:31:50;;;;;;;11.90;6.43;;;;;;;;;;5013954;28;20479;-52
2021/10/27 13:34:17;;;;;;;13.55;5.90;;;;;;;;;;5013743;28;20116;-52
2021/10/27 13:36:43;;;;;;;16.25;7.30;;;;;;;;;;5014241;28;20036;-51
2021/10/27 13:39:09;;;;;;;15.38;6.28;;;;;;;;;;5013932;28;20109;-51
2021/10/27 13:41:36;;;;;;;13.43;5.88;;;;;;;;;;5014187;28;20087;-51
2021/10/27 13:44:14;;;;;;;10.77;5.93;;;;;;;;;;5013610;28;20030;-51
2021/10/27 13:46:55;;;;;;;11.32;4.50;;;;;;;;;;5029989;28;20064;-52
2021/10/27 13:49:41;;;;;;;13.80;5.80;;;;;;;;;;5029817;28;20528;-52
2021/10/27 14:08:27;;;;;;;16.48;7.22;;;;;;;;;;5056265;28;20040;-54
2021/10/27 14:16:14;;;;;;;14.15;6.55;;;;;;;;;;5055980;28;20029;-55
2021/10/27 15:21:43;;;;;;;17.70;6.93;;;;;;;;;;5034549;28;20402;-54
2021/10/27 15:24:34;;;;;;;16.20;7.60;;;;;;;;;;5033720;28;20410;-54
2021/10/27 15:35:04;;;;;;;21.98;8.35;;;;;;;;;;5036112;28;20029;-54
2021/10/27 15:40:28;;;;;;;26.95;10.93;;;;;;;;;;5044603;28;20525;-54
2021/10/27 15:43:05;;;;;;;28.05;12.48;;;;;;;;;;5042198;28;20119;-54
2021/10/27 15:45:41;;;;;;;23.77;11.32;;;;;;;;;;5043760;28;20025;-54
2021/10/27 15:53:20;;;;;;;15.07;8.23;;;;;;;;;;5033171;28;20386;-55
2021/10/27 15:55:47;;;;;;;22.65;9.85;;;;;;;;;;5033075;28;20091;-54
2021/10/27 15:58:13;;;;;;;27.50;10.27;;;;;;;;;;5034169;28;20071;-54
2021/10/27 16:00:40;;;;;;;16.27;7.65;;;;;;;;;;5033648;28;20367;-54
2021/10/27 16:03:07;;;;;;;16.45;8.07;;;;;;;;;;5030952;28;20559;-54
2021/10/27 16:05:38;;;;;;;17.10;7.60;;;;;;;;;;5033207;28;20045;-55
2021/10/27 16:08:04;;;;;;;17.55;7.22;;;;;;;;;;5033777;28;20025;-54
2021/10/27 16:10:33;;;;;;;23.27;7.38;;;;;;;;;;5033015;28;20459;-55
2021/10/27 16:12:59;;;;;;;15.85;7.05;;;;;;;;;;5032859;28;20025;-54
2021/10/27 16:18:07;;;;;;;13.88;5.88;;;;;;;;;;5033645;28;20079;-54
2021/10/27 16:20:33;;;;;;;18.38;6.65;;;;;;;;;;5032804;28;20052;-54
2021/10/27 16:22:59;;;;;;;13.10;6.30;;;;;;;;;;5032706;28;20026;-54
2021/10/27 16:25:26;;;;;;;15.93;6.47;;;;;;;;;;5052820;28;20033;-55
2021/10/27 16:27:52;;;;;;;14.40;6.28;;;;;;;;;;5053109;28;20358;-54
2021/10/27 16:30:18;;;;;;;14.63;6.07;;;;;;;;;;5052709;28;20045;-54
2021/10/27 16:32:45;;;;;;;15.55;6.75;;;;;;;;;;5052754;28;20025;-55
2021/10/27 16:35:11;;;;;;;17.98;5.72;;;;;;;;;;5052097;28;20120;-54
2021/10/27 16:37:38;;;;;;;16.00;6.65;;;;;;;;;;5048842;28;20034;-54
2021/10/27 16:40:04;;;;;;;15.10;5.40;;;;;;;;;;5052248;28;20057;-54
2021/10/27 16:42:32;;;;;;;13.32;5.40;;;;;;;;;;5051182;28;20434;-54
2021/10/27 16:44:58;;;;;;;14.27;6.65;;;;;;;;;;5052208;28;20036;-54
2021/10/27 16:47:24;;;;;;;14.57;6.82;;;;;;;;;;5048926;28;20393;-55
2021/10/27 16:49:50;;;;;;;14.45;6.90;;;;;;;;;;5049230;28;20041;-54
2021/10/27 16:52:17;;;;;;;21.10;6.38;;;;;;;;;;5038081;28;20048;-55
2021/10/27 16:54:44;;;;;;;14.60;6.55;;;;;;;;;;5034967;28;20503;-54
2021/10/27 16:57:10;;;;;;;14.68;7.43;;;;;;;;;;5035609;28;20410;-54
2021/10/27 16:59:36;;;;;;;13.43;6.60;;;;;;;;;;5037108;28;20036;-54
2021/10/27 17:02:02;;;;;;;24.02;9.55;;;;;;;;;;5037477;28;20021;-54
2021/10/27 17:04:28;;;;;;;19.23;8.40;;;;;;;;;;5040648;28;20033;-54
2021/10/27 17:06:57;;;;;;;26.83;9.20;;;;;;;;;;5040221;28;20024;-54
2021/10/27 17:09:23;;;;;;;26.38;7.55;;;;;;;;;;5040289;28;20040;-54
2021/10/27 17:11:49;;;;;;;11.35;7.03;;;;;;;;;;5039183;28;20104;-54
2021/10/27 17:14:15;;;;;;;15.63;8.10;;;;;;;;;;5039355;28;20025;-54
2021/10/27 17:16:42;;;;;;;17.67;7.63;;;;;;;;;;5044370;28;20021;-54
2021/10/27 17:19:09;;;;;;;14.68;6.97;;;;;;;;;;5039069;28;20045;-54
2021/10/27 17:21:36;;;;;;;16.08;7.40;;;;;;;;;;5037100;28;20032;-54
2021/10/27 17:24:02;;;;;;;16.42;7.85;;;;;;;;;;5044752;28;20049;-55
2021/10/27 17:26:29;;;;;;;18.90;6.65;;;;;;;;;;5037927;28;20034;-54
2021/10/27 17:28:55;;;;;;;15.35;7.35;;;;;;;;;;5038400;28;20024;-54
2021/10/27 17:31:21;;;;;;;15.25;6.97;;;;;;;;;;5038484;28;20052;-54
2021/10/27 17:33:47;;;;;;;14.95;7.40;;;;;;;;;;5044349;28;20378;-54
2021/10/27 17:36:13;;;;;;;14.93;7.50;;;;;;;;;;5038445;28;20022;-54
2021/10/27 17:38:41;;;;;;;14.40;6.85;;;;;;;;;;5043296;28;20064;-54
2021/10/27 17:41:08;;;;;;;22.70;8.90;;;;;;;;;;5037069;28;20065;-54
2021/10/27 17:43:34;;;;;;;22.63;8.93;;;;;;;;;;5037388;28;20025;-55
2021/10/27 17:46:03;;;;;;;16.38;6.63;;;;;;;;;;5037800;28;20010;-54
2021/10/27 17:49:17;;;;;;;16.40;6.72;;;;;;;;;;5037928;28;20044;-54
2021/10/27 17:51:20;;;;;;;12.43;7.03;;;;;;;;;;5033329;28;20048;-54
2021/10/27 17:59:15;;;;;;;13.57;7.43;;;;;;;;;;5050942;28;20043;-54
2021/10/27 18:01:42;;;;;;;19.00;7.38;;;;;;;;;;5049288;28;20029;-54
2021/10/27 18:04:08;;;;;;;17.90;7.97;;;;;;;;;;5053370;28;20413;-54
2021/10/27 18:06:36;;;;;;;21.15;8.38;;;;;;;;;;5045107;28;20029;-54
2021/10/27 18:09:03;;;;;;;28.25;10.18;;;;;;;;;;5050968;28;20028;-54
2021/10/27 18:11:31;;;;;;;28.45;11.95;;;;;;;;;;5038886;28;20032;-54
2021/10/27 18:14:06;;;;;;;24.00;8.48;;;;;;;;;;5034037;28;20017;-55
2021/10/27 18:16:48;;;;;;;16.95;8.07;;;;;;;;;;5036427;28;20414;-54
2021/10/27 18:21:55;;;;;;;11.82;6.28;;;;;;;;;;5036122;28;20033;-54
2021/10/27 18:27:25;;;;;;;13.60;6.82;;;;;;;;;;5038239;28;20471;-54
2021/10/27 18:38:37;;;;;;;12.77;6.90;;;;;;;;;;5022990;28;20048;-54
2021/10/27 18:41:20;;;;;;;15.23;7.28;;;;;;;;;;5023234;28;20029;-54
2021/10/27 18:43:46;;;;;;;21.73;10.13;;;;;;;;;;5023959;28;20498;-54
2021/10/27 18:46:13;;;;;;;16.92;7.07;;;;;;;;;;5027239;28;20057;-54
2021/10/27 18:48:45;;;;;;;21.30;8.05;;;;;;;;;;5024806;28;20025;-55
2021/10/27 18:51:16;;;;;;;19.58;8.23;;;;;;;;;;5023166;28;20049;-53
2021/10/27 19:11:33;;;;;;;22.23;9.95;;;;;;;;;;5047016;28;20086;-54
2021/10/27 19:15:01;;;;;;;25.60;10.57;;;;;;;;;;5049807;28;20013;-54
2021/10/27 19:16:46;;;;;;;31.10;12.50;;;;;;;;;;5046964;28;20071;-54
2021/10/27 19:19:13;;;;;;;20.95;8.98;;;;;;;;;;5054141;28;20075;-55
2021/10/27 19:21:39;;;;;;;17.25;7.57;;;;;;;;;;5054109;28;20370;-54
2021/10/27 19:24:08;;;;;;;19.05;9.45;;;;;;;;;;5043868;28;20026;-54
2021/10/27 19:26:43;;;;;;;15.63;7.32;;;;;;;;;;5033273;28;20033;-54
2021/10/27 19:29:15;;;;;;;17.73;8.57;;;;;;;;;;5032931;28;20083;-54
2021/10/27 20:05:01;;;;;;;17.70;9.40;;;;;;;;;;5043049;28;20111;-54
2021/10/27 20:17:54;;;;;;;22.27;9.50;;;;;;;;;;5046108;28;20026;-54
2021/10/27 20:53:05;;;;;;;19.00;8.77;;;;;;;;;;5033132;28;20359;-54
2021/10/27 20:55:33;;;;;;;17.00;7.47;;;;;;;;;;5032941;28;20037;-54
2021/10/27 21:00:44;;;;;;;21.92;8.57;;;;;;;;;;5033010;28;20396;-55
2021/10/27 21:13:59;;;;;;;18.40;8.63;;;;;;;;;;5031832;28;20090;-54
2021/10/27 21:16:25;;;;;;;23.65;9.23;;;;;;;;;;5032621;28;20025;-54
2021/10/27 21:18:52;;;;;;;28.55;10.98;;;;;;;;;;5032627;28;20106;-54
2021/10/27 21:21:18;;;;;;;25.23;11.30;;;;;;;;;;5033098;28;20052;-54
2021/10/27 21:23:44;;;;;;;22.30;9.88;;;;;;;;;;5031688;28;20026;-54
2021/10/27 21:26:10;;;;;;;21.65;9.75;;;;;;;;;;5032633;28;20030;-54
2021/10/27 21:44:26;;;;;;;25.55;9.95;;;;;;;;;;5031748;28;20083;-54
2021/10/27 21:46:53;;;;;;;26.77;9.85;;;;;;;;;;5032944;28;20107;-54
2021/10/27 21:49:21;;;;;;;28.98;11.95;;;;;;;;;;5033791;28;20030;-54
2021/10/27 21:51:47;;;;;;;19.90;10.02;;;;;;;;;;5036031;28;20506;-55
2021/10/27 21:54:13;;;;;;;27.92;11.18;;;;;;;;;;5035600;28;20052;-54
2021/10/27 21:56:41;;;;;;;21.55;10.05;;;;;;;;;;5036528;28;20115;-54
2021/10/27 21:59:07;;;;;;;21.15;9.48;;;;;;;;;;5036103;28;20120;-54
2021/10/27 22:01:33;;;;;;;29.30;10.63;;;;;;;;;;5035781;28;20052;-54
2021/10/27 22:04:00;;;;;;;21.33;8.90;;;;;;;;;;5035089;28;20041;-54
2021/10/27 22:06:26;;;;;;;23.83;10.93;;;;;;;;;;5036440;28;20049;-54
2021/10/27 22:08:52;;;;;;;23.30;10.70;;;;;;;;;;5035984;28;20080;-54
2021/10/27 22:11:18;;;;;;;20.45;8.95;;;;;;;;;;5035849;28;20042;-54
2021/10/27 22:13:44;;;;;;;22.05;9.00;;;;;;;;;;5034902;28;20352;-54
2021/10/27 22:16:11;;;;;;;24.17;10.50;;;;;;;;;;5035844;28;20029;-54
2021/10/27 22:18:37;;;;;;;23.63;10.50;;;;;;;;;;5035612;28;20403;-54
2021/10/27 22:21:03;;;;;;;21.73;10.35;;;;;;;;;;5035781;28;20436;-54
2021/10/27 22:23:30;;;;;;;22.73;9.48;;;;;;;;;;5034961;28;20025;-54
2021/10/27 22:25:57;;;;;;;22.65;9.15;;;;;;;;;;5035705;28;20466;-54
2021/10/27 22:28:23;;;;;;;28.27;9.90;;;;;;;;;;5034263;28;20352;-55
2021/10/27 22:30:49;;;;;;;30.42;10.57;;;;;;;;;;5034380;28;20132;-54
2021/10/27 22:33:15;;;;;;;23.52;9.50;;;;;;;;;;5034969;28;20100;-54
2021/10/27 22:35:42;;;;;;;25.00;11.75;;;;;;;;;;5035599;28;20675;-53
2021/10/27 22:38:10;;;;;;;24.15;9.93;;;;;;;;;;5035358;28;20030;-54
2021/10/27 22:40:36;;;;;;;26.42;11.07;;;;;;;;;;5035744;28;20032;-54
2021/10/27 22:43:02;;;;;;;23.63;9.48;;;;;;;;;;5034945;28;20021;-54
2021/10/27 22:45:28;;;;;;;26.17;10.43;;;;;;;;;;5035181;28;20033;-54
2021/10/27 22:47:54;;;;;;;24.02;9.85;;;;;;;;;;5035535;28;20021;-54
2021/10/27 22:50:21;;;;;;;23.38;9.50;;;;;;;;;;5034924;28;20043;-54
2021/10/27 22:52:48;;;;;;;25.35;10.60;;;;;;;;;;5035295;28;20594;-54
2021/10/27 22:55:14;;;;;;;20.33;9.80;;;;;;;;;;5034835;28;20026;-54
2021/10/27 22:57:40;;;;;;;20.50;8.82;;;;;;;;;;5034872;28;20104;-54
2021/10/27 23:00:16;;;;;;;24.27;9.52;;;;;;;;;;5034236;28;20079;-54
2021/10/27 23:03:07;;;;;;;24.75;9.98;;;;;;;;;;5035112;28;20022;-54
2021/10/27 23:16:21;;;;;;;24.00;9.68;;;;;;;;;;5034641;28;20036;-54
2021/10/27 23:41:00;;;;;;;22.92;10.90;;;;;;;;;;5034471;28;20116;-54
2021/10/27 23:43:35;;;;;;;23.58;9.93;;;;;;;;;;5033636;28;20471;-54
2021/10/27 23:46:01;;;;;;;23.83;10.52;;;;;;;;;;5034129;28;20061;-54
2021/10/27 23:48:27;;;;;;;26.88;10.35;;;;;;;;;;5034256;28;20054;-54
2021/10/27 23:51:00;;;;;;;27.50;11.65;;;;;;;;;;5033935;28;20036;-54
2021/10/27 23:53:33;;;;;;;27.83;10.63;;;;;;;;;;5033138;28;20412;-54
2021/10/27 23:56:05;;;;;;;28.85;11.27;;;;;;;;;;5034106;28;20036;-54
2021/10/27 23:58:45;;;;;;;24.17;10.02;;;;;;;;;;5033977;28;20152;-54
